Time;durP1;ratioP1;P1;durP2;ratioP2;P2;SDS_P1;SDS_P2;PMS_P1;PMS_P2;Temp;Humidity;BMP_temperature;BMP_pressure;BME280_temperature;BME280_humidity;BME280_pressure;Samples;Min_cycle;Max_cycle;Signal;HPM_P1;HPM_P2
2022/01/21 00:00:17;;;;;;;7.10;2.20;;;;;;;;;;5049881;28;20029;-67
2022/01/21 00:02:43;;;;;;;6.75;2.03;;;;;;;;;;5051168;28;20083;-67
2022/01/21 00:05:09;;;;;;;7.07;2.42;;;;;;;;;;5051285;28;20472;-67
2022/01/21 00:07:36;;;;;;;8.65;2.00;;;;;;;;;;5051405;28;20380;-66
2022/01/21 00:10:02;;;;;;;7.30;2.10;;;;;;;;;;5048328;28;20106;-64
2022/01/21 00:12:30;;;;;;;10.90;2.22;;;;;;;;;;5051518;28;20025;-66
2022/01/21 00:14:56;;;;;;;6.03;2.17;;;;;;;;;;5051477;28;20017;-66
2022/01/21 00:17:23;;;;;;;5.18;1.80;;;;;;;;;;5049920;28;20476;-66
2022/01/21 00:30:02;;;;;;;5.63;1.60;;;;;;;;;;5050983;28;20076;-65
2022/01/21 00:30:50;;;;;;;5.65;2.03;;;;;;;;;;5051095;28;20079;-66
2022/01/21 00:33:16;;;;;;;6.45;1.70;;;;;;;;;;5051038;28;20029;-67
2022/01/21 00:35:42;;;;;;;5.75;1.70;;;;;;;;;;5051472;28;20392;-68
2022/01/21 00:38:08;;;;;;;3.67;1.83;;;;;;;;;;5051372;28;20097;-66
2022/01/21 00:40:34;;;;;;;5.93;1.70;;;;;;;;;;5051484;28;20032;-67
2022/01/21 00:43:29;;;;;;;4.70;1.60;;;;;;;;;;5051317;28;20029;-65
2022/01/21 00:45:55;;;;;;;4.15;1.60;;;;;;;;;;5051472;28;20025;-65
2022/01/21 00:48:21;;;;;;;3.80;1.50;;;;;;;;;;5051146;28;20074;-66
2022/01/21 00:50:48;;;;;;;3.95;1.50;;;;;;;;;;5054413;28;20096;-66
2022/01/21 00:53:14;;;;;;;4.55;1.50;;;;;;;;;;5054396;28;20533;-67
2022/01/21 00:55:40;;;;;;;6.18;1.80;;;;;;;;;;5054903;28;20017;-67
2022/01/21 00:58:07;;;;;;;5.32;1.88;;;;;;;;;;5054409;28;20079;-67
2022/01/21 01:00:33;;;;;;;3.08;1.20;;;;;;;;;;5054488;28;20021;-65
2022/01/21 01:02:59;;;;;;;3.55;1.30;;;;;;;;;;5054579;28;20025;-66
2022/01/21 01:05:26;;;;;;;3.70;1.42;;;;;;;;;;5054697;28;20052;-65
2022/01/21 01:07:54;;;;;;;6.30;1.42;;;;;;;;;;5054497;28;20591;-66
2022/01/21 01:10:35;;;;;;;5.45;1.67;;;;;;;;;;5054404;28;20025;-67
2022/01/21 01:21:21;;;;;;;7.60;1.65;;;;;;;;;;5052906;28;20021;-66
2022/01/21 01:24:04;;;;;;;4.22;1.40;;;;;;;;;;5053889;28;20051;-66
2022/01/21 01:29:17;;;;;;;4.22;1.58;;;;;;;;;;5053499;28;20040;-65
2022/01/21 01:31:43;;;;;;;3.13;1.10;;;;;;;;;;5053474;28;20029;-66
2022/01/21 01:34:09;;;;;;;5.57;1.70;;;;;;;;;;5053803;28;20590;-64
2022/01/21 01:36:36;;;;;;;3.63;1.20;;;;;;;;;;5052207;28;20062;-63
2022/01/21 01:41:43;;;;;;;3.65;1.33;;;;;;;;;;5053540;28;20025;-65
2022/01/21 01:49:38;;;;;;;3.42;1.00;;;;;;;;;;5052992;28;20059;-64
2022/01/21 01:52:09;;;;;;;4.47;1.17;;;;;;;;;;5052144;28;20029;-65
2022/01/21 01:54:37;;;;;;;2.85;1.00;;;;;;;;;;5053172;28;20108;-64
2022/01/21 01:57:03;;;;;;;4.63;1.48;;;;;;;;;;5051942;28;20025;-64
2022/01/21 01:59:29;;;;;;;3.30;1.20;;;;;;;;;;5053164;28;20529;-64
2022/01/21 02:01:58;;;;;;;1.90;0.77;;;;;;;;;;5052089;28;20112;-64
2022/01/21 02:04:24;;;;;;;2.72;0.98;;;;;;;;;;5053168;28;20033;-64
2022/01/21 02:06:51;;;;;;;2.10;1.00;;;;;;;;;;5053144;28;20100;-64
2022/01/21 02:09:17;;;;;;;3.38;0.77;;;;;;;;;;5052803;28;20060;-64
2022/01/21 02:11:43;;;;;;;3.60;0.98;;;;;;;;;;5052940;28;20021;-64
2022/01/21 02:14:14;;;;;;;4.32;1.20;;;;;;;;;;5051705;28;20028;-64
2022/01/21 02:22:10;;;;;;;3.50;1.02;;;;;;;;;;5053085;28;20051;-65
2022/01/21 02:24:55;;;;;;;3.20;0.98;;;;;;;;;;5052817;28;20436;-64
2022/01/21 02:27:22;;;;;;;2.53;0.82;;;;;;;;;;5052639;28;20028;-66
2022/01/21 02:29:51;;;;;;;2.85;1.05;;;;;;;;;;5052704;28;20498;-66
2022/01/21 02:32:17;;;;;;;2.13;0.70;;;;;;;;;;5051315;28;20490;-67
2022/01/21 02:34:44;;;;;;;2.97;1.00;;;;;;;;;;5052680;28;20104;-66
2022/01/21 02:37:11;;;;;;;3.05;0.80;;;;;;;;;;5052626;28;20476;-67
2022/01/21 02:39:37;;;;;;;2.80;0.88;;;;;;;;;;5052404;28;20460;-67
2022/01/21 02:42:03;;;;;;;3.10;0.90;;;;;;;;;;5052489;28;20021;-67
2022/01/21 02:44:29;;;;;;;2.53;0.90;;;;;;;;;;5052422;28;20231;-67
2022/01/21 02:47:02;;;;;;;1.45;0.68;;;;;;;;;;5051232;28;20460;-67
2022/01/21 02:49:29;;;;;;;2.70;0.85;;;;;;;;;;5050974;28;20444;-67
2022/01/21 02:51:56;;;;;;;3.05;0.90;;;;;;;;;;5051330;28;20112;-67
2022/01/21 02:54:22;;;;;;;3.13;1.00;;;;;;;;;;5052478;28;20017;-67
2022/01/21 02:56:48;;;;;;;3.55;1.10;;;;;;;;;;5052428;28;20055;-66
2022/01/21 02:59:15;;;;;;;3.30;0.95;;;;;;;;;;5051891;28;20025;-65
2022/01/21 03:01:42;;;;;;;2.47;0.70;;;;;;;;;;5052005;28;20496;-65
2022/01/21 03:04:09;;;;;;;2.17;1.00;;;;;;;;;;5051981;28;20048;-65
2022/01/21 03:06:39;;;;;;;2.33;0.88;;;;;;;;;;5051946;28;20021;-65
2022/01/21 03:09:06;;;;;;;2.63;0.80;;;;;;;;;;5052033;28;20032;-64
2022/01/21 03:11:32;;;;;;;4.50;1.00;;;;;;;;;;5051739;28;20075;-66
2022/01/21 03:13:59;;;;;;;4.00;0.80;;;;;;;;;;5052148;28;20021;-67
2022/01/21 03:16:25;;;;;;;3.45;0.90;;;;;;;;;;5051901;28;20025;-67
2022/01/21 03:18:52;;;;;;;4.10;1.10;;;;;;;;;;5051615;28;20064;-65
2022/01/21 03:21:18;;;;;;;3.97;1.08;;;;;;;;;;5051629;28;20028;-66
2022/01/21 03:23:46;;;;;;;2.10;0.70;;;;;;;;;;5051639;28;20033;-66
2022/01/21 03:26:14;;;;;;;2.40;0.80;;;;;;;;;;5051615;28;20028;-66
2022/01/21 03:28:41;;;;;;;4.18;0.85;;;;;;;;;;5051468;28;20357;-66
2022/01/21 03:31:07;;;;;;;3.28;0.80;;;;;;;;;;5051649;28;20078;-65
2022/01/21 03:33:33;;;;;;;2.22;0.68;;;;;;;;;;5051813;28;20113;-66
2022/01/21 03:35:59;;;;;;;4.20;1.00;;;;;;;;;;5051762;28;20102;-66
2022/01/21 03:38:27;;;;;;;3.38;1.13;;;;;;;;;;5051791;28;20036;-67
2022/01/21 03:41:11;;;;;;;2.65;0.80;;;;;;;;;;5051739;28;20017;-67
2022/01/21 03:43:37;;;;;;;2.38;0.80;;;;;;;;;;5049687;28;20550;-66
2022/01/21 03:46:04;;;;;;;2.28;0.65;;;;;;;;;;5050536;28;20103;-67
2022/01/21 03:48:30;;;;;;;2.63;0.90;;;;;;;;;;5051792;28;20017;-66
2022/01/21 03:50:57;;;;;;;2.13;0.80;;;;;;;;;;5051464;28;20021;-64
2022/01/21 03:53:23;;;;;;;2.25;0.80;;;;;;;;;;5051704;28;20027;-67
2022/01/21 03:55:49;;;;;;;4.20;1.20;;;;;;;;;;5051850;28;20020;-67
2022/01/21 03:58:16;;;;;;;3.20;0.85;;;;;;;;;;5051538;28;20025;-67
2022/01/21 04:00:43;;;;;;;3.20;0.95;;;;;;;;;;5051775;28;20021;-66
2022/01/21 04:03:10;;;;;;;4.30;0.80;;;;;;;;;;5051424;28;20465;-66
2022/01/21 04:05:36;;;;;;;3.58;1.00;;;;;;;;;;5051555;28;20025;-67
2022/01/21 04:08:03;;;;;;;1.17;0.60;;;;;;;;;;5051569;28;20118;-67
2022/01/21 04:10:30;;;;;;;3.30;0.80;;;;;;;;;;5050198;28;20024;-67
2022/01/21 04:12:56;;;;;;;6.50;1.70;;;;;;;;;;5051404;28;20025;-67
2022/01/21 04:15:23;;;;;;;3.25;0.88;;;;;;;;;;5050154;28;20021;-64
2022/01/21 04:17:49;;;;;;;4.05;1.13;;;;;;;;;;5051491;28;20014;-65
2022/01/21 04:20:16;;;;;;;2.25;0.70;;;;;;;;;;5051158;28;20060;-65
2022/01/21 04:22:43;;;;;;;2.15;0.93;;;;;;;;;;5052084;28;20032;-65
2022/01/21 04:25:09;;;;;;;3.42;1.10;;;;;;;;;;5055661;28;20062;-65
2022/01/21 04:27:36;;;;;;;5.65;1.10;;;;;;;;;;5053697;28;20483;-68
2022/01/21 04:30:03;;;;;;;2.60;0.82;;;;;;;;;;5053704;28;20029;-66
2022/01/21 04:32:29;;;;;;;3.13;0.98;;;;;;;;;;5054974;28;20024;-67
2022/01/21 04:34:55;;;;;;;4.53;1.08;;;;;;;;;;5054891;28;20032;-67
2022/01/21 04:37:21;;;;;;;5.30;0.98;;;;;;;;;;5054596;28;20112;-65
2022/01/21 04:39:57;;;;;;;4.63;1.02;;;;;;;;;;5054614;28;20476;-66
2022/01/21 04:47:36;;;;;;;3.65;1.00;;;;;;;;;;5054626;28;20454;-65
2022/01/21 04:50:02;;;;;;;3.60;1.30;;;;;;;;;;5053175;28;20029;-68
2022/01/21 04:52:28;;;;;;;2.42;0.80;;;;;;;;;;5054671;28;20040;-68
2022/01/21 04:54:54;;;;;;;4.43;1.33;;;;;;;;;;5054462;28;20460;-67
2022/01/21 04:57:21;;;;;;;3.42;1.30;;;;;;;;;;5052877;28;20028;-68
2022/01/21 04:59:47;;;;;;;3.05;0.90;;;;;;;;;;5052926;28;20027;-67
2022/01/21 05:02:13;;;;;;;2.58;0.90;;;;;;;;;;5054292;28;20068;-68
2022/01/21 05:04:39;;;;;;;5.50;1.20;;;;;;;;;;5053482;28;20033;-67
2022/01/21 05:07:08;;;;;;;3.38;1.02;;;;;;;;;;5054422;28;20029;-67
2022/01/21 05:09:35;;;;;;;3.10;0.88;;;;;;;;;;5054429;28;20021;-64
2022/01/21 05:12:02;;;;;;;3.10;1.10;;;;;;;;;;5054176;28;20021;-67
2022/01/21 05:17:15;;;;;;;2.35;0.80;;;;;;;;;;5054640;28;20083;-67
2022/01/21 05:19:41;;;;;;;4.63;1.20;;;;;;;;;;5054200;28;20048;-66
2022/01/21 05:22:07;;;;;;;3.45;0.93;;;;;;;;;;5054153;28;20048;-67
2022/01/21 05:24:34;;;;;;;3.70;1.30;;;;;;;;;;5054193;28;20056;-67
2022/01/21 05:27:01;;;;;;;4.15;0.90;;;;;;;;;;5054405;28;20163;-65
2022/01/21 05:29:31;;;;;;;1.90;1.00;;;;;;;;;;5053693;28;20021;-68
2022/01/21 05:31:57;;;;;;;3.65;1.13;;;;;;;;;;5053765;28;20380;-66
2022/01/21 05:34:24;;;;;;;2.75;0.95;;;;;;;;;;5050601;28;20100;-67
2022/01/21 05:36:50;;;;;;;7.05;1.25;;;;;;;;;;5052375;28;20020;-66
2022/01/21 05:39:17;;;;;;;7.00;1.33;;;;;;;;;;5045585;28;20079;-68
2022/01/21 05:41:46;;;;;;;19.40;1.83;;;;;;;;;;5033795;28;20049;-68
2022/01/21 05:44:19;;;;;;;6.47;1.05;;;;;;;;;;5032598;28;20040;-68
2022/01/21 05:46:57;;;;;;;;;;;;;;;;;;5052836;28;20028;-67
2022/01/21 05:49:24;;;;;;;8.43;1.55;;;;;;;;;;5053280;28;19912;-69
2022/01/21 05:51:52;;;;;;;9.02;1.67;;;;;;;;;;5053158;28;20017;-67
2022/01/21 05:54:24;;;;;;;10.45;1.83;;;;;;;;;;5052765;28;20017;-63
2022/01/21 05:56:51;;;;;;;17.00;2.10;;;;;;;;;;5053100;28;20021;-67
2022/01/21 05:59:17;;;;;;;6.90;1.20;;;;;;;;;;5052799;28;20115;-66
2022/01/21 06:01:43;;;;;;;9.35;2.15;;;;;;;;;;5052684;28;20111;-67
2022/01/21 06:04:09;;;;;;;11.18;2.10;;;;;;;;;;5052675;28;20028;-67
2022/01/21 06:06:36;;;;;;;7.93;1.63;;;;;;;;;;5052649;28;20021;-67
2022/01/21 06:09:03;;;;;;;10.68;1.40;;;;;;;;;;5052394;28;20024;-66
2022/01/21 06:11:29;;;;;;;7.07;1.55;;;;;;;;;;5052406;28;20022;-66
2022/01/21 06:13:55;;;;;;;18.27;1.77;;;;;;;;;;5045779;28;20029;-69
2022/01/21 06:16:21;;;;;;;9.48;1.63;;;;;;;;;;5031875;28;20071;-71
2022/01/21 06:18:47;;;;;;;10.82;1.65;;;;;;;;;;5031527;28;20531;-70
2022/01/21 06:21:13;;;;;;;13.20;1.48;;;;;;;;;;5030421;28;20033;-69
2022/01/21 06:23:40;;;;;;;8.02;1.63;;;;;;;;;;5031279;28;20029;-69
2022/01/21 06:26:06;;;;;;;5.43;1.23;;;;;;;;;;5032532;28;20068;-70
2022/01/21 06:28:32;;;;;;;10.90;1.65;;;;;;;;;;5032470;28;20491;-70
2022/01/21 06:30:58;;;;;;;6.50;1.38;;;;;;;;;;5032660;28;20365;-67
2022/01/21 06:33:24;;;;;;;8.30;1.40;;;;;;;;;;5031317;28;20114;-70
2022/01/21 06:35:51;;;;;;;7.70;1.55;;;;;;;;;;5032685;28;20028;-70
2022/01/21 06:38:18;;;;;;;15.20;1.65;;;;;;;;;;5032499;28;20017;-70
2022/01/21 06:40:44;;;;;;;4.15;1.25;;;;;;;;;;5032182;28;20029;-69
2022/01/21 06:43:10;;;;;;;4.28;1.35;;;;;;;;;;5031103;28;20488;-69
2022/01/21 06:45:36;;;;;;;8.52;1.48;;;;;;;;;;5031871;28;20037;-68
2022/01/21 06:48:03;;;;;;;6.72;2.05;;;;;;;;;;5031291;28;20026;-70
2022/01/21 06:50:33;;;;;;;9.60;1.50;;;;;;;;;;5031919;28;20021;-68
2022/01/21 06:52:59;;;;;;;5.68;1.60;;;;;;;;;;5032038;28;20029;-68
2022/01/21 06:55:26;;;;;;;5.88;1.73;;;;;;;;;;5030636;28;20026;-63
2022/01/21 06:57:52;;;;;;;8.20;1.58;;;;;;;;;;5033326;28;20017;-66
2022/01/21 07:00:19;;;;;;;9.20;1.48;;;;;;;;;;5055869;28;20025;-67
2022/01/21 07:02:46;;;;;;;11.38;2.00;;;;;;;;;;5051203;28;20057;-69
2022/01/21 07:05:12;;;;;;;9.32;1.67;;;;;;;;;;5054904;28;20021;-70
2022/01/21 07:07:39;;;;;;;8.20;1.80;;;;;;;;;;5057012;28;20088;-68
2022/01/21 07:10:06;;;;;;;8.55;1.70;;;;;;;;;;5054832;28;20059;-70
2022/01/21 07:12:35;;;;;;;10.40;1.60;;;;;;;;;;5054704;28;20025;-65
2022/01/21 07:15:02;;;;;;;6.07;1.92;;;;;;;;;;5057327;28;20020;-69
2022/01/21 07:17:28;;;;;;;14.05;1.98;;;;;;;;;;5064130;28;20111;-70
2022/01/21 07:19:54;;;;;;;8.38;1.65;;;;;;;;;;5050035;28;20060;-65
2022/01/21 07:22:20;;;;;;;8.90;1.70;;;;;;;;;;5056584;28;20024;-68
2022/01/21 07:24:46;;;;;;;8.82;1.60;;;;;;;;;;5052516;28;20086;-67
2022/01/21 07:27:12;;;;;;;5.75;1.40;;;;;;;;;;5057563;28;20030;-70
2022/01/21 07:29:38;;;;;;;10.77;1.52;;;;;;;;;;5065055;28;20392;-70
2022/01/21 07:32:04;;;;;;;8.43;2.03;;;;;;;;;;5052285;28;20025;-70
2022/01/21 07:34:30;;;;;;;8.68;1.70;;;;;;;;;;5055271;28;20068;-68
2022/01/21 07:36:56;;;;;;;7.28;1.83;;;;;;;;;;5052949;28;20021;-71
2022/01/21 07:39:23;;;;;;;6.60;1.75;;;;;;;;;;5050440;28;20104;-66
2022/01/21 07:41:50;;;;;;;6.07;1.67;;;;;;;;;;5049423;28;20127;-69
2022/01/21 07:44:16;;;;;;;4.18;1.30;;;;;;;;;;5053165;28;20535;-68
2022/01/21 07:46:43;;;;;;;6.38;1.70;;;;;;;;;;5051900;28;20044;-68
2022/01/21 07:49:10;;;;;;;5.15;1.45;;;;;;;;;;5059290;28;20033;-65
2022/01/21 07:51:36;;;;;;;12.73;1.75;;;;;;;;;;5056598;28;20043;-65
2022/01/21 07:54:03;;;;;;;5.68;1.80;;;;;;;;;;5054183;28;20083;-66
2022/01/21 07:56:30;;;;;;;9.23;1.52;;;;;;;;;;5052348;28;20446;-63
2022/01/21 07:58:56;;;;;;;7.72;1.63;;;;;;;;;;5056072;28;20025;-68
2022/01/21 08:01:22;;;;;;;4.78;1.38;;;;;;;;;;5059557;28;20105;-68
2022/01/21 08:03:48;;;;;;;5.80;1.33;;;;;;;;;;5053906;28;20017;-69
2022/01/21 08:06:14;;;;;;;7.35;1.50;;;;;;;;;;5055040;28;20070;-67
2022/01/21 08:08:41;;;;;;;3.75;1.20;;;;;;;;;;5055925;28;20028;-69
2022/01/21 08:11:07;;;;;;;6.53;1.75;;;;;;;;;;5063543;28;20036;-67
2022/01/21 08:13:33;;;;;;;6.55;1.30;;;;;;;;;;5062237;28;20473;-65
2022/01/21 08:15:59;;;;;;;7.20;1.65;;;;;;;;;;5059762;28;20056;-67
2022/01/21 08:18:26;;;;;;;5.38;1.50;;;;;;;;;;5064078;28;20044;-67
2022/01/21 08:20:52;;;;;;;11.00;1.45;;;;;;;;;;5060305;28;20111;-66
2022/01/21 08:23:18;;;;;;;7.90;1.67;;;;;;;;;;5059587;28;20033;-67
2022/01/21 08:25:44;;;;;;;6.43;1.73;;;;;;;;;;5055791;28;20060;-69
2022/01/21 08:28:10;;;;;;;6.68;1.60;;;;;;;;;;5058711;28;20031;-66
2022/01/21 08:30:37;;;;;;;6.07;1.60;;;;;;;;;;5060087;28;20502;-68
2022/01/21 08:33:04;;;;;;;5.10;1.63;;;;;;;;;;5058219;28;20032;-68
2022/01/21 08:35:30;;;;;;;5.22;1.33;;;;;;;;;;5061463;28;20081;-64
2022/01/21 08:37:56;;;;;;;5.75;1.58;;;;;;;;;;5070574;28;20107;-68
2022/01/21 08:40:23;;;;;;;5.00;1.67;;;;;;;;;;5069270;28;20016;-70
2022/01/21 08:42:49;;;;;;;5.88;1.60;;;;;;;;;;5070693;28;20044;-69
2022/01/21 08:45:15;;;;;;;7.07;1.58;;;;;;;;;;5059355;28;20387;-66
2022/01/21 08:47:42;;;;;;;4.93;1.38;;;;;;;;;;5065893;28;20036;-65
2022/01/21 08:50:11;;;;;;;7.53;1.90;;;;;;;;;;5058140;28;20024;-66
2022/01/21 08:52:38;;;;;;;7.00;1.42;;;;;;;;;;5058073;28;20025;-66
2022/01/21 08:55:07;;;;;;;9.70;1.73;;;;;;;;;;5064843;28;20020;-66
2022/01/21 08:57:36;;;;;;;9.07;1.50;;;;;;;;;;5056114;28;20025;-68
2022/01/21 09:00:03;;;;;;;8.55;1.40;;;;;;;;;;5055541;28;20060;-67
2022/01/21 09:02:29;;;;;;;4.50;1.38;;;;;;;;;;5056540;28;20025;-69
2022/01/21 09:04:55;;;;;;;5.07;1.10;;;;;;;;;;5056061;28;20045;-64
2022/01/21 09:07:21;;;;;;;5.32;1.40;;;;;;;;;;5063014;28;20021;-67
2022/01/21 09:09:47;;;;;;;5.82;1.17;;;;;;;;;;5063503;28;20053;-62
2022/01/21 09:12:14;;;;;;;4.47;1.23;;;;;;;;;;5066002;28;20027;-63
2022/01/21 09:14:40;;;;;;;4.75;1.25;;;;;;;;;;5061575;28;20025;-63
2022/01/21 09:17:06;;;;;;;6.25;1.35;;;;;;;;;;5057516;28;20486;-69
2022/01/21 09:19:32;;;;;;;4.82;1.45;;;;;;;;;;5055155;28;20856;-70
2022/01/21 09:22:02;;;;;;;6.93;1.50;;;;;;;;;;5056554;28;20029;-67
2022/01/21 09:24:28;;;;;;;5.10;1.45;;;;;;;;;;5050370;28;20523;-66
2022/01/21 09:26:54;;;;;;;3.28;1.08;;;;;;;;;;5054935;28;20103;-66
2022/01/21 09:29:20;;;;;;;8.75;1.30;;;;;;;;;;5056041;28;20036;-63
2022/01/21 09:31:47;;;;;;;5.20;1.52;;;;;;;;;;5062823;28;20020;-68
2022/01/21 09:34:13;;;;;;;6.25;1.30;;;;;;;;;;5061896;28;20032;-68
2022/01/21 09:36:39;;;;;;;3.50;1.10;;;;;;;;;;5056574;28;20036;-68
2022/01/21 09:39:06;;;;;;;5.00;1.17;;;;;;;;;;5059537;28;20052;-69
2022/01/21 09:41:32;;;;;;;4.82;1.55;;;;;;;;;;5056012;28;20017;-70
2022/01/21 09:44:01;;;;;;;4.80;1.20;;;;;;;;;;5055179;28;20043;-71
2022/01/21 09:46:33;;;;;;;5.72;1.20;;;;;;;;;;5056840;28;20021;-66
2022/01/21 09:49:25;;;;;;;9.43;2.00;;;;;;;;;;5064557;28;20035;-69
2022/01/21 09:51:56;;;;;;;10.07;1.70;;;;;;;;;;5047180;28;20021;-65
2022/01/21 09:54:23;;;;;;;4.75;1.27;;;;;;;;;;5056864;28;20074;-70
2022/01/21 09:56:50;;;;;;;5.90;1.55;;;;;;;;;;5052336;28;20025;-70
2022/01/21 09:59:20;;;;;;;5.32;1.75;;;;;;;;;;5056319;28;20037;-70
2022/01/21 10:01:50;;;;;;;5.78;1.40;;;;;;;;;;5058925;28;20013;-69
2022/01/21 10:04:17;;;;;;;7.28;1.63;;;;;;;;;;5057158;28;20126;-64
2022/01/21 10:06:45;;;;;;;7.63;1.52;;;;;;;;;;5053874;28;20025;-68
2022/01/21 10:09:11;;;;;;;9.93;1.70;;;;;;;;;;5055047;28;20033;-69
2022/01/21 10:11:37;;;;;;;4.68;1.30;;;;;;;;;;5063910;28;20496;-62
2022/01/21 10:14:03;;;;;;;10.30;1.63;;;;;;;;;;5067599;28;20032;-64
2022/01/21 10:16:29;;;;;;;3.55;1.05;;;;;;;;;;5056239;28;20063;-63
2022/01/21 10:18:59;;;;;;;5.80;1.63;;;;;;;;;;5060897;28;20071;-68
2022/01/21 10:21:30;;;;;;;6.65;1.23;;;;;;;;;;5054507;28;20036;-64
2022/01/21 10:24:03;;;;;;;5.30;1.30;;;;;;;;;;5065250;28;20115;-64
2022/01/21 10:26:30;;;;;;;5.57;1.23;;;;;;;;;;5056494;28;20146;-62
2022/01/21 10:28:57;;;;;;;5.10;1.35;;;;;;;;;;5065734;28;20033;-63
2022/01/21 10:31:27;;;;;;;6.60;1.20;;;;;;;;;;5053870;28;20028;-66
2022/01/21 10:34:02;;;;;;;10.82;1.52;;;;;;;;;;5053629;28;20697;-64
2022/01/21 10:36:31;;;;;;;11.38;1.73;;;;;;;;;;5046871;28;20033;-71
2022/01/21 10:39:17;;;;;;;9.80;1.83;;;;;;;;;;5057113;28;20020;-69
2022/01/21 10:41:44;;;;;;;11.38;2.15;;;;;;;;;;5055345;28;20028;-65
2022/01/21 10:44:12;;;;;;;10.07;1.98;;;;;;;;;;5071730;28;20060;-68
2022/01/21 10:46:43;;;;;;;9.55;1.42;;;;;;;;;;5060802;28;20104;-66
2022/01/21 10:49:11;;;;;;;7.30;1.48;;;;;;;;;;5057854;28;20370;-68
2022/01/21 10:51:38;;;;;;;10.13;1.85;;;;;;;;;;5064473;28;20032;-64
2022/01/21 10:54:14;;;;;;;7.15;1.65;;;;;;;;;;5055215;28;20368;-67
2022/01/21 10:56:40;;;;;;;12.05;1.85;;;;;;;;;;5061618;28;20419;-66
2022/01/21 10:59:06;;;;;;;10.35;1.67;;;;;;;;;;5065191;28;20039;-66
2022/01/21 11:01:32;;;;;;;8.85;1.52;;;;;;;;;;5054653;28;20017;-65
2022/01/21 11:04:08;;;;;;;5.03;1.65;;;;;;;;;;5066778;28;20092;-66
2022/01/21 11:06:48;;;;;;;5.10;1.67;;;;;;;;;;5051976;28;20024;-66
2022/01/21 11:09:19;;;;;;;7.80;1.70;;;;;;;;;;5056499;28;20029;-66
2022/01/21 11:11:46;;;;;;;6.82;2.03;;;;;;;;;;5066693;28;20020;-65
2022/01/21 11:14:16;;;;;;;7.65;1.77;;;;;;;;;;5057387;28;20017;-65
2022/01/21 11:16:44;;;;;;;9.27;1.73;;;;;;;;;;5061089;28;20079;-62
2022/01/21 11:19:15;;;;;;;9.07;1.40;;;;;;;;;;5065294;28;20032;-65
2022/01/21 11:21:51;;;;;;;4.60;1.20;;;;;;;;;;5054772;28;20033;-66
2022/01/21 11:24:19;;;;;;;4.97;1.40;;;;;;;;;;5056914;28;20444;-65
2022/01/21 11:27:04;;;;;;;5.47;1.70;;;;;;;;;;5059371;28;20032;-65
2022/01/21 11:29:31;;;;;;;6.20;1.35;;;;;;;;;;5049483;28;20114;-67
2022/01/21 11:31:57;;;;;;;6.03;1.58;;;;;;;;;;5067129;28;20021;-64
2022/01/21 11:34:23;;;;;;;6.82;1.90;;;;;;;;;;5058671;28;20024;-65
2022/01/21 11:36:49;;;;;;;9.40;1.88;;;;;;;;;;5062571;28;20052;-63
2022/01/21 11:39:20;;;;;;;4.82;1.50;;;;;;;;;;5056138;28;20021;-64
2022/01/21 11:41:49;;;;;;;4.55;1.40;;;;;;;;;;5050170;28;20022;-66
2022/01/21 11:44:19;;;;;;;5.03;1.75;;;;;;;;;;5051614;28;20032;-66
2022/01/21 11:46:59;;;;;;;5.35;1.42;;;;;;;;;;5051525;28;20091;-65
2022/01/21 11:49:25;;;;;;;6.00;1.73;;;;;;;;;;5051691;28;20021;-66
2022/01/21 11:52:07;;;;;;;5.88;1.55;;;;;;;;;;5051612;28;20017;-66
2022/01/21 11:54:36;;;;;;;7.82;1.73;;;;;;;;;;5051596;28;20037;-65
2022/01/21 11:57:05;;;;;;;6.70;1.88;;;;;;;;;;5051275;28;20017;-65
2022/01/21 11:59:41;;;;;;;8.20;1.55;;;;;;;;;;5051423;28;20108;-65
2022/01/21 12:02:13;;;;;;;5.35;1.80;;;;;;;;;;5051463;28;20017;-65
2022/01/21 12:04:41;;;;;;;9.25;1.73;;;;;;;;;;5051162;28;20074;-66
2022/01/21 12:07:27;;;;;;;4.65;1.60;;;;;;;;;;5051242;28;20021;-65
2022/01/21 12:09:58;;;;;;;8.93;1.70;;;;;;;;;;5047123;28;20518;-67
2022/01/21 12:12:25;;;;;;;15.25;3.17;;;;;;;;;;5039654;28;20048;-66
2022/01/21 12:14:59;;;;;;;13.95;4.55;;;;;;;;;;5031052;28;20041;-66
2022/01/21 12:17:49;;;;;;;9.68;3.58;;;;;;;;;;5034748;28;20456;-66
2022/01/21 12:20:15;;;;;;;7.85;2.35;;;;;;;;;;5050248;28;20132;-67
2022/01/21 12:22:41;;;;;;;10.93;2.28;;;;;;;;;;5050651;28;20021;-65
2022/01/21 12:25:07;;;;;;;9.10;2.22;;;;;;;;;;5050507;28;20507;-66
2022/01/21 12:27:34;;;;;;;9.00;2.38;;;;;;;;;;5051248;28;20117;-65
2022/01/21 12:30:19;;;;;;;13.32;3.53;;;;;;;;;;5041922;28;20029;-68
2022/01/21 12:33:04;;;;;;;10.50;1.80;;;;;;;;;;5030821;28;20032;-66
2022/01/21 12:35:31;;;;;;;12.50;2.15;;;;;;;;;;5030974;28;20018;-65
2022/01/21 12:41:24;;;;;;;13.00;2.40;;;;;;;;;;5030911;28;20464;-65
2022/01/21 12:43:50;;;;;;;9.05;2.45;;;;;;;;;;5031454;28;20477;-66
2022/01/21 12:46:18;;;;;;;12.43;3.00;;;;;;;;;;5034491;28;20022;-65
2022/01/21 12:48:45;;;;;;;9.98;2.35;;;;;;;;;;5035179;28;20021;-66
2022/01/21 12:56:42;;;;;;;12.73;2.92;;;;;;;;;;5053896;28;20517;-65
2022/01/21 12:59:12;;;;;;;7.88;2.13;;;;;;;;;;5054768;28;20597;-65
2022/01/21 13:01:38;;;;;;;10.70;2.00;;;;;;;;;;5055828;28;20078;-66
2022/01/21 13:04:11;;;;;;;9.77;1.88;;;;;;;;;;5054098;28;20041;-67
2022/01/21 13:06:43;;;;;;;10.10;2.25;;;;;;;;;;5052082;28;20032;-63
2022/01/21 13:09:10;;;;;;;9.18;2.08;;;;;;;;;;5053856;28;20036;-67
2022/01/21 13:11:40;;;;;;;7.40;2.25;;;;;;;;;;5053950;28;20092;-69
2022/01/21 13:17:06;;;;;;;4.53;1.77;;;;;;;;;;5053635;28;20025;-63
2022/01/21 13:19:42;;;;;;;8.10;1.88;;;;;;;;;;5047851;28;20045;-64
2022/01/21 13:22:37;;;;;;;7.20;2.17;;;;;;;;;;5051136;28;20025;-64
2022/01/21 13:25:15;;;;;;;12.85;2.53;;;;;;;;;;5062880;28;20079;-66
2022/01/21 13:27:51;;;;;;;9.40;1.67;;;;;;;;;;5060091;28;20100;-63
2022/01/21 13:30:21;;;;;;;4.78;1.50;;;;;;;;;;5068056;28;20471;-63
2022/01/21 13:32:48;;;;;;;5.88;1.77;;;;;;;;;;5058677;28;20086;-65
2022/01/21 13:35:15;;;;;;;8.65;1.70;;;;;;;;;;5064041;28;20043;-68
2022/01/21 13:37:59;;;;;;;7.63;1.92;;;;;;;;;;5064820;28;20077;-65
2022/01/21 13:40:26;;;;;;;6.97;1.60;;;;;;;;;;5044802;28;20507;-67
2022/01/21 13:42:52;;;;;;;5.65;1.60;;;;;;;;;;5066707;28;20029;-67
2022/01/21 13:45:18;;;;;;;7.35;1.98;;;;;;;;;;5060876;28;20036;-65
2022/01/21 13:47:46;;;;;;;5.47;2.05;;;;;;;;;;5058126;28;20029;-67
2022/01/21 13:50:17;;;;;;;8.82;1.60;;;;;;;;;;5069154;28;20078;-65
2022/01/21 13:52:48;;;;;;;7.20;2.13;;;;;;;;;;5057740;28;20023;-66
2022/01/21 13:55:26;;;;;;;3.55;1.33;;;;;;;;;;5063134;28;20049;-66
2022/01/21 13:57:53;;;;;;;9.05;1.80;;;;;;;;;;5063594;28;20047;-66
2022/01/21 14:00:26;;;;;;;5.65;1.63;;;;;;;;;;5055836;28;20118;-70
2022/01/21 14:03:06;;;;;;;5.72;1.40;;;;;;;;;;5066303;28;20024;-68
2022/01/21 14:05:51;;;;;;;5.55;1.50;;;;;;;;;;5062251;28;20041;-66
2022/01/21 14:08:19;;;;;;;6.75;1.50;;;;;;;;;;5069277;28;20071;-69
2022/01/21 14:10:45;;;;;;;7.00;1.65;;;;;;;;;;5057596;28;20468;-69
2022/01/21 14:13:11;;;;;;;5.55;1.83;;;;;;;;;;5060208;28;20064;-66
2022/01/21 14:15:38;;;;;;;5.53;1.60;;;;;;;;;;5056511;28;20100;-70
2022/01/21 14:18:04;;;;;;;6.13;1.58;;;;;;;;;;5068618;28;20070;-66
2022/01/21 14:20:32;;;;;;;4.10;1.50;;;;;;;;;;5055837;28;20049;-69
2022/01/21 14:22:59;;;;;;;8.35;1.70;;;;;;;;;;5065714;28;20476;-69
2022/01/21 14:25:25;;;;;;;6.28;1.50;;;;;;;;;;5062404;28;20488;-69
2022/01/21 14:27:52;;;;;;;4.25;1.50;;;;;;;;;;5058190;28;20025;-69
2022/01/21 14:30:19;;;;;;;8.15;1.98;;;;;;;;;;5061779;28;20041;-70
2022/01/21 14:32:52;;;;;;;4.75;1.40;;;;;;;;;;5067267;28;20024;-66
2022/01/21 14:35:25;;;;;;;10.63;1.48;;;;;;;;;;5061581;28;20056;-66
2022/01/21 14:37:52;;;;;;;6.50;2.03;;;;;;;;;;5057875;28;20423;-67
2022/01/21 14:40:22;;;;;;;5.80;1.70;;;;;;;;;;5067843;28;20085;-66
2022/01/21 14:42:49;;;;;;;4.40;1.30;;;;;;;;;;5046855;28;20522;-66
2022/01/21 14:45:19;;;;;;;6.60;1.40;;;;;;;;;;5035155;28;20092;-66
2022/01/21 14:47:46;;;;;;;4.60;1.30;;;;;;;;;;5033118;28;20086;-65
2022/01/21 14:50:14;;;;;;;28.92;1.90;;;;;;;;;;5031601;28;20014;-63
2022/01/21 14:52:49;;;;;;;8.10;1.58;;;;;;;;;;5031829;28;20468;-63
2022/01/21 14:55:41;;;;;;;8.73;1.85;;;;;;;;;;5032123;28;20034;-64
2022/01/21 14:58:10;;;;;;;10.98;1.75;;;;;;;;;;5030450;28;20083;-65
2022/01/21 15:00:36;;;;;;;9.68;1.77;;;;;;;;;;5032134;28;20025;-62
2022/01/21 15:03:15;;;;;;;7.35;1.73;;;;;;;;;;5051051;28;20086;-67
2022/01/21 15:05:42;;;;;;;6.55;1.90;;;;;;;;;;5043035;28;20041;-62
2022/01/21 15:08:09;;;;;;;6.60;1.20;;;;;;;;;;5050127;28;20028;-62
2022/01/21 15:10:42;;;;;;;6.55;1.73;;;;;;;;;;5051648;28;20035;-62
2022/01/21 15:16:14;;;;;;;5.70;1.45;;;;;;;;;;5051783;28;20134;-65
2022/01/21 15:18:41;;;;;;;6.60;2.08;;;;;;;;;;5051437;28;20017;-67
2022/01/21 15:21:17;;;;;;;8.52;1.55;;;;;;;;;;5045532;28;20480;-65
2022/01/21 15:23:45;;;;;;;39.08;3.90;;;;;;;;;;5050709;28;20048;-66
2022/01/21 15:26:11;;;;;;;13.55;2.38;;;;;;;;;;5050647;28;20032;-63
2022/01/21 15:28:37;;;;;;;10.45;2.38;;;;;;;;;;5051097;28;20021;-65
2022/01/21 15:31:03;;;;;;;15.80;2.90;;;;;;;;;;5050812;28;20074;-63
2022/01/21 15:33:29;;;;;;;14.27;2.40;;;;;;;;;;5050791;28;20032;-65
2022/01/21 15:35:55;;;;;;;9.13;1.65;;;;;;;;;;5049976;28;20021;-65
2022/01/21 15:38:21;;;;;;;12.07;2.40;;;;;;;;;;5051077;28;20152;-65
2022/01/21 15:40:47;;;;;;;9.57;1.88;;;;;;;;;;5051072;28;20074;-66
2022/01/21 15:43:14;;;;;;;5.82;1.40;;;;;;;;;;5051233;28;20029;-66